sensor_id;sensor_type;location;lat;lon;timestamp;temperature;humidity
14877;DHT22;69691;48.172;17.070;2023-05-10T00:00:27;12.60;56.60
14877;DHT22;69691;48.172;17.070;2023-05-10T00:02:52;12.60;56.70
14877;DHT22;69691;48.172;17.070;2023-05-10T00:05:18;12.60;56.80
14877;DHT22;69691;48.172;17.070;2023-05-10T00:07:44;12.60;56.80
14877;DHT22;69691;48.172;17.070;2023-05-10T00:10:11;12.50;56.80
14877;DHT22;69691;48.172;17.070;2023-05-10T00:12:37;12.50;56.90
14877;DHT22;69691;48.172;17.070;2023-05-10T00:15:03;12.50;56.90
14877;DHT22;69691;48.172;17.070;2023-05-10T00:17:29;12.50;57.00
14877;DHT22;69691;48.172;17.070;2023-05-10T00:19:55;12.50;57.00
14877;DHT22;69691;48.172;17.070;2023-05-10T00:22:21;12.50;57.20
14877;DHT22;69691;48.172;17.070;2023-05-10T00:24:47;12.40;57.30
14877;DHT22;69691;48.172;17.070;2023-05-10T00:27:13;12.40;57.30
14877;DHT22;69691;48.172;17.070;2023-05-10T00:29:39;12.40;57.40
14877;DHT22;69691;48.172;17.070;2023-05-10T00:32:04;12.40;57.40
14877;DHT22;69691;48.172;17.070;2023-05-10T00:34:31;12.40;57.50
14877;DHT22;69691;48.172;17.070;2023-05-10T00:36:57;12.40;57.60
14877;DHT22;69691;48.172;17.070;2023-05-10T00:39:23;12.40;57.60
14877;DHT22;69691;48.172;17.070;2023-05-10T00:41:49;12.30;57.50
14877;DHT22;69691;48.172;17.070;2023-05-10T00:44:16;12.40;57.70
14877;DHT22;69691;48.172;17.070;2023-05-10T00:46:41;12.30;57.80
14877;DHT22;69691;48.172;17.070;2023-05-10T00:49:07;12.30;57.90
14877;DHT22;69691;48.172;17.070;2023-05-10T00:51:33;12.30;57.90
14877;DHT22;69691;48.172;17.070;2023-05-10T00:53:59;12.30;58.00
14877;DHT22;69691;48.172;17.070;2023-05-10T00:56:25;12.30;58.00
14877;DHT22;69691;48.172;17.070;2023-05-10T00:58:52;12.20;58.10
14877;DHT22;69691;48.172;17.070;2023-05-10T01:01:19;12.20;58.10
14877;DHT22;69691;48.172;17.070;2023-05-10T01:03:45;12.20;58.30
14877;DHT22;69691;48.172;17.070;2023-05-10T01:06:12;12.20;58.40
14877;DHT22;69691;48.172;17.070;2023-05-10T01:08:39;12.20;59.10
14877;DHT22;69691;48.172;17.070;2023-05-10T01:11:05;12.10;58.60
14877;DHT22;69691;48.172;17.070;2023-05-10T01:13:36;12.10;58.80
14877;DHT22;69691;48.172;17.070;2023-05-10T01:16:04;12.10;59.00
14877;DHT22;69691;48.172;17.070;2023-05-10T01:18:37;12.10;59.10
14877;DHT22;69691;48.172;17.070;2023-05-10T01:24:27;12.00;59.50
14877;DHT22;69691;48.172;17.070;2023-05-10T01:33:46;12.00;60.00
14877;DHT22;69691;48.172;17.070;2023-05-10T01:36:30;11.90;60.10
14877;DHT22;69691;48.172;17.070;2023-05-10T01:41:55;11.90;60.50
14877;DHT22;69691;48.172;17.070;2023-05-10T01:44:38;11.80;60.40
14877;DHT22;69691;48.172;17.070;2023-05-10T01:47:10;11.80;61.30
14877;DHT22;69691;48.172;17.070;2023-05-10T01:49:42;11.80;61.50
14877;DHT22;69691;48.172;17.070;2023-05-10T01:52:12;11.80;61.60
14877;DHT22;69691;48.172;17.070;2023-05-10T01:54:44;11.80;61.70
14877;DHT22;69691;48.172;17.070;2023-05-10T01:57:16;11.80;62.00
14877;DHT22;69691;48.172;17.070;2023-05-10T01:59:49;11.80;62.30
14877;DHT22;69691;48.172;17.070;2023-05-10T02:02:17;11.70;62.60
14877;DHT22;69691;48.172;17.070;2023-05-10T02:04:46;11.70;63.50
14877;DHT22;69691;48.172;17.070;2023-05-10T02:07:14;11.70;62.90
14877;DHT22;69691;48.172;17.070;2023-05-10T02:09:42;11.70;63.40
14877;DHT22;69691;48.172;17.070;2023-05-10T02:12:12;11.70;63.70
14877;DHT22;69691;48.172;17.070;2023-05-10T02:14:39;11.70;63.90
14877;DHT22;69691;48.172;17.070;2023-05-10T02:17:07;11.60;64.60
14877;DHT22;69691;48.172;17.070;2023-05-10T02:19:36;11.60;64.90
14877;DHT22;69691;48.172;17.070;2023-05-10T02:22:04;11.60;65.20
14877;DHT22;69691;48.172;17.070;2023-05-10T02:24:33;11.60;65.60
14877;DHT22;69691;48.172;17.070;2023-05-10T02:27:00;11.60;65.90
14877;DHT22;69691;48.172;17.070;2023-05-10T02:29:28;11.50;66.00
14877;DHT22;69691;48.172;17.070;2023-05-10T02:31:56;11.50;66.10
14877;DHT22;69691;48.172;17.070;2023-05-10T02:34:25;11.50;66.50
14877;DHT22;69691;48.172;17.070;2023-05-10T02:36:53;11.50;66.80
14877;DHT22;69691;48.172;17.070;2023-05-10T02:39:21;11.50;67.10
14877;DHT22;69691;48.172;17.070;2023-05-10T02:41:49;11.40;67.20
14877;DHT22;69691;48.172;17.070;2023-05-10T02:44:18;11.50;67.80
14877;DHT22;69691;48.172;17.070;2023-05-10T02:46:46;11.40;67.80
14877;DHT22;69691;48.172;17.070;2023-05-10T02:49:12;11.40;68.30
14877;DHT22;69691;48.172;17.070;2023-05-10T02:51:43;11.30;68.60
14877;DHT22;69691;48.172;17.070;2023-05-10T02:54:18;11.30;69.00
14877;DHT22;69691;48.172;17.070;2023-05-10T02:56:50;11.30;69.30
14877;DHT22;69691;48.172;17.070;2023-05-10T02:59:17;11.20;69.40
14877;DHT22;69691;48.172;17.070;2023-05-10T03:01:42;11.20;69.50
14877;DHT22;69691;48.172;17.070;2023-05-10T03:04:08;11.20;69.80
14877;DHT22;69691;48.172;17.070;2023-05-10T03:06:34;11.10;69.70
14877;DHT22;69691;48.172;17.070;2023-05-10T03:09:03;11.10;69.70
14877;DHT22;69691;48.172;17.070;2023-05-10T03:17:41;11.00;70.70
14877;DHT22;69691;48.172;17.070;2023-05-10T03:20:35;10.90;71.60
14877;DHT22;69691;48.172;17.070;2023-05-10T03:23:11;10.90;71.20
14877;DHT22;69691;48.172;17.070;2023-05-10T03:25:39;10.90;71.30
14877;DHT22;69691;48.172;17.070;2023-05-10T03:28:06;10.90;71.60
14877;DHT22;69691;48.172;17.070;2023-05-10T03:30:34;10.90;71.60
14877;DHT22;69691;48.172;17.070;2023-05-10T03:33:05;11.00;71.80
14877;DHT22;69691;48.172;17.070;2023-05-10T03:35:33;11.00;72.20
14877;DHT22;69691;48.172;17.070;2023-05-10T03:37:59;10.90;72.50
14877;DHT22;69691;48.172;17.070;2023-05-10T03:40:26;11.00;72.60
14877;DHT22;69691;48.172;17.070;2023-05-10T03:42:55;11.00;72.70
14877;DHT22;69691;48.172;17.070;2023-05-10T03:45:20;11.00;72.70
14877;DHT22;69691;48.172;17.070;2023-05-10T03:47:46;11.10;72.80
14877;DHT22;69691;48.172;17.070;2023-05-10T03:50:12;11.10;73.50
14877;DHT22;69691;48.172;17.070;2023-05-10T03:52:38;11.10;74.00
14877;DHT22;69691;48.172;17.070;2023-05-10T03:55:07;11.10;74.00
14877;DHT22;69691;48.172;17.070;2023-05-10T03:57:33;11.20;74.00
14877;DHT22;69691;48.172;17.070;2023-05-10T03:59:59;11.20;74.10
14877;DHT22;69691;48.172;17.070;2023-05-10T04:02:25;11.30;74.20
14877;DHT22;69691;48.172;17.070;2023-05-10T04:04:52;11.30;74.50
14877;DHT22;69691;48.172;17.070;2023-05-10T04:07:18;11.40;74.70
14877;DHT22;69691;48.172;17.070;2023-05-10T04:09:44;11.40;74.60
14877;DHT22;69691;48.172;17.070;2023-05-10T04:12:10;11.50;74.60
14877;DHT22;69691;48.172;17.070;2023-05-10T04:14:36;11.50;74.60
14877;DHT22;69691;48.172;17.070;2023-05-10T04:17:02;11.50;74.70
14877;DHT22;69691;48.172;17.070;2023-05-10T04:19:31;11.60;74.70
14877;DHT22;69691;48.172;17.070;2023-05-10T04:21:57;11.70;75.00
14877;DHT22;69691;48.172;17.070;2023-05-10T04:24:24;11.70;75.00
14877;DHT22;69691;48.172;17.070;2023-05-10T04:26:50;11.80;75.40
14877;DHT22;69691;48.172;17.070;2023-05-10T04:29:16;11.90;74.40
14877;DHT22;69691;48.172;17.070;2023-05-10T04:31:42;11.90;74.50
14877;DHT22;69691;48.172;17.070;2023-05-10T04:34:07;12.00;74.60
14877;DHT22;69691;48.172;17.070;2023-05-10T04:36:33;12.00;74.40
14877;DHT22;69691;48.172;17.070;2023-05-10T04:39:02;12.00;74.50
14877;DHT22;69691;48.172;17.070;2023-05-10T04:41:28;12.00;74.50
14877;DHT22;69691;48.172;17.070;2023-05-10T04:43:54;12.10;74.90
14877;DHT22;69691;48.172;17.070;2023-05-10T04:46:20;12.20;75.60
14877;DHT22;69691;48.172;17.070;2023-05-10T04:48:46;12.30;74.50
14877;DHT22;69691;48.172;17.070;2023-05-10T04:51:12;12.30;74.80
14877;DHT22;69691;48.172;17.070;2023-05-10T04:53:38;12.40;75.00
14877;DHT22;69691;48.172;17.070;2023-05-10T04:56:04;12.50;74.80
14877;DHT22;69691;48.172;17.070;2023-05-10T04:58:30;12.60;74.50
14877;DHT22;69691;48.172;17.070;2023-05-10T05:00:56;12.70;74.20
14877;DHT22;69691;48.172;17.070;2023-05-10T05:03:22;12.70;73.90
14877;DHT22;69691;48.172;17.070;2023-05-10T05:05:48;12.80;73.90
14877;DHT22;69691;48.172;17.070;2023-05-10T05:08:14;12.90;73.80
14877;DHT22;69691;48.172;17.070;2023-05-10T05:10:40;13.00;73.80
14877;DHT22;69691;48.172;17.070;2023-05-10T05:13:06;13.20;73.30
14877;DHT22;69691;48.172;17.070;2023-05-10T05:15:31;13.40;73.40
14877;DHT22;69691;48.172;17.070;2023-05-10T05:17:57;13.70;71.40
14877;DHT22;69691;48.172;17.070;2023-05-10T05:20:23;13.90;70.20
14877;DHT22;69691;48.172;17.070;2023-05-10T05:22:49;14.10;70.10
14877;DHT22;69691;48.172;17.070;2023-05-10T05:25:15;14.40;68.50
14877;DHT22;69691;48.172;17.070;2023-05-10T05:27:41;14.60;67.60
14877;DHT22;69691;48.172;17.070;2023-05-10T05:30:07;15.00;67.10
14877;DHT22;69691;48.172;17.070;2023-05-10T05:32:34;15.40;65.40
14877;DHT22;69691;48.172;17.070;2023-05-10T05:34:59;15.60;63.80
14877;DHT22;69691;48.172;17.070;2023-05-10T05:37:25;15.70;63.10
14877;DHT22;69691;48.172;17.070;2023-05-10T05:39:51;15.80;62.40
14877;DHT22;69691;48.172;17.070;2023-05-10T05:43:01;16.00;62.00
14877;DHT22;69691;48.172;17.070;2023-05-10T05:45:27;16.30;60.80
14877;DHT22;69691;48.172;17.070;2023-05-10T05:47:53;16.50;60.60
14877;DHT22;69691;48.172;17.070;2023-05-10T05:50:19;16.80;60.40
14877;DHT22;69691;48.172;17.070;2023-05-10T05:52:45;17.10;59.40
14877;DHT22;69691;48.172;17.070;2023-05-10T05:55:11;17.30;58.40
14877;DHT22;69691;48.172;17.070;2023-05-10T05:57:37;17.40;58.30
14877;DHT22;69691;48.172;17.070;2023-05-10T06:00:03;17.60;57.70
14877;DHT22;69691;48.172;17.070;2023-05-10T06:02:40;17.70;57.30
14877;DHT22;69691;48.172;17.070;2023-05-10T06:05:07;17.90;56.70
14877;DHT22;69691;48.172;17.070;2023-05-10T06:07:33;18.10;56.30
14877;DHT22;69691;48.172;17.070;2023-05-10T06:09:59;18.10;55.60
14877;DHT22;69691;48.172;17.070;2023-05-10T06:12:25;18.10;55.80
14877;DHT22;69691;48.172;17.070;2023-05-10T06:14:50;18.30;55.80
14877;DHT22;69691;48.172;17.070;2023-05-10T06:17:16;18.40;55.10
14877;DHT22;69691;48.172;17.070;2023-05-10T06:19:42;18.30;55.20
14877;DHT22;69691;48.172;17.070;2023-05-10T06:22:08;18.20;55.50
14877;DHT22;69691;48.172;17.070;2023-05-10T06:24:34;18.30;55.60
14877;DHT22;69691;48.172;17.070;2023-05-10T06:26:59;18.40;55.60
14877;DHT22;69691;48.172;17.070;2023-05-10T06:29:26;18.50;55.10
14877;DHT22;69691;48.172;17.070;2023-05-10T06:31:51;18.60;54.60
14877;DHT22;69691;48.172;17.070;2023-05-10T06:34:25;18.80;54.70
14877;DHT22;69691;48.172;17.070;2023-05-10T06:36:52;19.00;54.40
14877;DHT22;69691;48.172;17.070;2023-05-10T06:39:18;19.00;53.80
14877;DHT22;69691;48.172;17.070;2023-05-10T06:41:45;19.30;53.50
14877;DHT22;69691;48.172;17.070;2023-05-10T06:44:11;19.30;52.80
14877;DHT22;69691;48.172;17.070;2023-05-10T06:46:36;19.40;53.20
14877;DHT22;69691;48.172;17.070;2023-05-10T06:49:02;19.40;52.50
14877;DHT22;69691;48.172;17.070;2023-05-10T06:51:28;19.30;52.60
14877;DHT22;69691;48.172;17.070;2023-05-10T07:02:32;19.60;52.90
14877;DHT22;69691;48.172;17.070;2023-05-10T07:04:57;19.70;52.60
14877;DHT22;69691;48.172;17.070;2023-05-10T07:07:23;20.00;52.50
14877;DHT22;69691;48.172;17.070;2023-05-10T07:09:49;20.10;51.50
14877;DHT22;69691;48.172;17.070;2023-05-10T07:12:17;20.10;51.10
14877;DHT22;69691;48.172;17.070;2023-05-10T07:14:43;20.20;51.50
14877;DHT22;69691;48.172;17.070;2023-05-10T07:17:09;20.40;50.90
14877;DHT22;69691;48.172;17.070;2023-05-10T07:19:35;20.40;50.60
14877;DHT22;69691;48.172;17.070;2023-05-10T07:22:01;20.30;50.10
14877;DHT22;69691;48.172;17.070;2023-05-10T07:24:27;20.30;50.50
14877;DHT22;69691;48.172;17.070;2023-05-10T07:26:53;20.30;50.60
14877;DHT22;69691;48.172;17.070;2023-05-10T07:29:19;20.40;50.40
14877;DHT22;69691;48.172;17.070;2023-05-10T07:31:45;20.50;50.40
14877;DHT22;69691;48.172;17.070;2023-05-10T07:34:10;20.60;50.40
14877;DHT22;69691;48.172;17.070;2023-05-10T07:36:36;20.60;50.40
14877;DHT22;69691;48.172;17.070;2023-05-10T07:39:02;20.60;49.70
14877;DHT22;69691;48.172;17.070;2023-05-10T07:41:28;20.70;49.70
14877;DHT22;69691;48.172;17.070;2023-05-10T07:43:54;20.60;49.60
14877;DHT22;69691;48.172;17.070;2023-05-10T07:46:20;20.60;49.80
14877;DHT22;69691;48.172;17.070;2023-05-10T07:48:46;20.60;49.50
14877;DHT22;69691;48.172;17.070;2023-05-10T07:51:11;20.70;48.90
14877;DHT22;69691;48.172;17.070;2023-05-10T07:53:38;20.70;48.70
14877;DHT22;69691;48.172;17.070;2023-05-10T07:58:54;20.70;47.60
14877;DHT22;69691;48.172;17.070;2023-05-10T08:01:20;20.50;47.90
14877;DHT22;69691;48.172;17.070;2023-05-10T08:03:46;20.30;48.10
14877;DHT22;69691;48.172;17.070;2023-05-10T08:06:13;20.30;48.50
14877;DHT22;69691;48.172;17.070;2023-05-10T08:08:41;20.40;48.70
14877;DHT22;69691;48.172;17.070;2023-05-10T08:11:07;20.40;48.50
14877;DHT22;69691;48.172;17.070;2023-05-10T08:13:33;20.30;48.50
14877;DHT22;69691;48.172;17.070;2023-05-10T08:15:59;20.20;48.20
14877;DHT22;69691;48.172;17.070;2023-05-10T08:18:26;20.20;48.50
14877;DHT22;69691;48.172;17.070;2023-05-10T08:20:52;20.20;48.40
14877;DHT22;69691;48.172;17.070;2023-05-10T08:23:17;20.00;48.20
14877;DHT22;69691;48.172;17.070;2023-05-10T08:25:43;20.00;48.40
14877;DHT22;69691;48.172;17.070;2023-05-10T08:28:09;19.90;48.50
14877;DHT22;69691;48.172;17.070;2023-05-10T08:30:35;19.70;48.60
14877;DHT22;69691;48.172;17.070;2023-05-10T08:33:01;19.50;49.00
14877;DHT22;69691;48.172;17.070;2023-05-10T08:35:26;19.40;49.30
14877;DHT22;69691;48.172;17.070;2023-05-10T08:37:52;19.40;49.30
14877;DHT22;69691;48.172;17.070;2023-05-10T08:40:19;19.10;49.80
14877;DHT22;69691;48.172;17.070;2023-05-10T08:42:54;19.00;51.00
14877;DHT22;69691;48.172;17.070;2023-05-10T08:45:23;19.10;50.90
14877;DHT22;69691;48.172;17.070;2023-05-10T08:47:51;19.10;51.00
14877;DHT22;69691;48.172;17.070;2023-05-10T08:50:20;19.30;51.00
14877;DHT22;69691;48.172;17.070;2023-05-10T08:52:48;19.40;50.60
14877;DHT22;69691;48.172;17.070;2023-05-10T08:55:16;19.30;50.50
14877;DHT22;69691;48.172;17.070;2023-05-10T08:57:43;19.40;50.50
14877;DHT22;69691;48.172;17.070;2023-05-10T09:00:11;19.50;50.50
14877;DHT22;69691;48.172;17.070;2023-05-10T09:02:39;19.60;50.40
14877;DHT22;69691;48.172;17.070;2023-05-10T09:05:06;19.70;50.30
14877;DHT22;69691;48.172;17.070;2023-05-10T09:07:33;20.00;50.40
14877;DHT22;69691;48.172;17.070;2023-05-10T09:09:59;20.00;49.90
14877;DHT22;69691;48.172;17.070;2023-05-10T09:12:25;20.00;49.80
14877;DHT22;69691;48.172;17.070;2023-05-10T09:14:52;19.90;50.10
14877;DHT22;69691;48.172;17.070;2023-05-10T09:17:19;19.80;49.90
14877;DHT22;69691;48.172;17.070;2023-05-10T09:19:45;19.70;50.20
14877;DHT22;69691;48.172;17.070;2023-05-10T09:22:11;19.80;50.30
14877;DHT22;69691;48.172;17.070;2023-05-10T09:24:37;20.00;50.20
14877;DHT22;69691;48.172;17.070;2023-05-10T09:27:07;20.10;50.00
14877;DHT22;69691;48.172;17.070;2023-05-10T09:29:41;20.30;49.80
14877;DHT22;69691;48.172;17.070;2023-05-10T09:32:08;20.60;49.60
14877;DHT22;69691;48.172;17.070;2023-05-10T09:34:34;20.60;49.20
14877;DHT22;69691;48.172;17.070;2023-05-10T09:37:05;20.40;48.70
14877;DHT22;69691;48.172;17.070;2023-05-10T09:39:38;20.40;49.30
14877;DHT22;69691;48.172;17.070;2023-05-10T09:42:06;20.40;49.30
14877;DHT22;69691;48.172;17.070;2023-05-10T09:44:34;20.50;49.10
14877;DHT22;69691;48.172;17.070;2023-05-10T09:47:03;20.50;48.40
14877;DHT22;69691;48.172;17.070;2023-05-10T09:49:29;20.40;48.30
14877;DHT22;69691;48.172;17.070;2023-05-10T09:52:07;20.40;48.70
14877;DHT22;69691;48.172;17.070;2023-05-10T09:54:36;20.40;48.30
14877;DHT22;69691;48.172;17.070;2023-05-10T09:57:03;20.20;48.30
14877;DHT22;69691;48.172;17.070;2023-05-10T09:59:29;20.20;48.60
14877;DHT22;69691;48.172;17.070;2023-05-10T10:01:56;20.20;48.70
14877;DHT22;69691;48.172;17.070;2023-05-10T10:04:23;20.40;49.00
14877;DHT22;69691;48.172;17.070;2023-05-10T10:07:03;20.50;48.30
14877;DHT22;69691;48.172;17.070;2023-05-10T10:09:31;20.60;48.20
14877;DHT22;69691;48.172;17.070;2023-05-10T10:11:57;20.60;48.60
14877;DHT22;69691;48.172;17.070;2023-05-10T10:14:23;20.70;48.70
14877;DHT22;69691;48.172;17.070;2023-05-10T10:16:50;20.90;48.50
14877;DHT22;69691;48.172;17.070;2023-05-10T10:19:21;21.10;48.10
14877;DHT22;69691;48.172;17.070;2023-05-10T10:21:50;21.30;47.50
14877;DHT22;69691;48.172;17.070;2023-05-10T10:24:16;21.40;47.30
14877;DHT22;69691;48.172;17.070;2023-05-10T10:26:42;21.40;47.10
14877;DHT22;69691;48.172;17.070;2023-05-10T10:29:36;21.50;47.00
14877;DHT22;69691;48.172;17.070;2023-05-10T10:32:26;21.60;46.20
14877;DHT22;69691;48.172;17.070;2023-05-10T10:34:56;21.60;47.30
14877;DHT22;69691;48.172;17.070;2023-05-10T10:37:22;21.80;46.30
14877;DHT22;69691;48.172;17.070;2023-05-10T10:39:49;21.90;46.20
14877;DHT22;69691;48.172;17.070;2023-05-10T10:42:44;21.80;46.00
14877;DHT22;69691;48.172;17.070;2023-05-10T10:45:12;21.80;45.80
14877;DHT22;69691;48.172;17.070;2023-05-10T10:47:38;21.50;45.70
14877;DHT22;69691;48.172;17.070;2023-05-10T10:50:06;21.40;46.10
14877;DHT22;69691;48.172;17.070;2023-05-10T10:52:42;21.40;46.20
14877;DHT22;69691;48.172;17.070;2023-05-10T10:55:13;21.50;46.30
14877;DHT22;69691;48.172;17.070;2023-05-10T10:57:53;21.70;45.90
14877;DHT22;69691;48.172;17.070;2023-05-10T11:00:30;22.00;45.70
14877;DHT22;69691;48.172;17.070;2023-05-10T11:03:08;22.20;45.20
14877;DHT22;69691;48.172;17.070;2023-05-10T11:05:48;22.30;44.70
14877;DHT22;69691;48.172;17.070;2023-05-10T11:08:28;22.30;44.60
14877;DHT22;69691;48.172;17.070;2023-05-10T11:15:59;22.70;44.30
14877;DHT22;69691;48.172;17.070;2023-05-10T11:21:33;23.40;43.50
14877;DHT22;69691;48.172;17.070;2023-05-10T11:24:01;23.50;43.80
14877;DHT22;69691;48.172;17.070;2023-05-10T11:26:32;23.70;42.40
14877;DHT22;69691;48.172;17.070;2023-05-10T11:29:00;23.80;42.20
14877;DHT22;69691;48.172;17.070;2023-05-10T11:31:27;23.70;42.00
14877;DHT22;69691;48.172;17.070;2023-05-10T11:33:59;23.80;41.90
14877;DHT22;69691;48.172;17.070;2023-05-10T11:36:34;23.90;41.80
14877;DHT22;69691;48.172;17.070;2023-05-10T11:39:01;24.20;41.90
14877;DHT22;69691;48.172;17.070;2023-05-10T11:41:29;24.10;41.50
14877;DHT22;69691;48.172;17.070;2023-05-10T11:43:57;23.90;41.60
14877;DHT22;69691;48.172;17.070;2023-05-10T11:46:26;23.80;41.80
14877;DHT22;69691;48.172;17.070;2023-05-10T11:48:57;23.80;41.80
14877;DHT22;69691;48.172;17.070;2023-05-10T11:51:27;23.90;41.80
14877;DHT22;69691;48.172;17.070;2023-05-10T11:53:54;23.90;41.60
14877;DHT22;69691;48.172;17.070;2023-05-10T11:56:21;24.10;41.60
14877;DHT22;69691;48.172;17.070;2023-05-10T11:58:53;24.30;41.20
14877;DHT22;69691;48.172;17.070;2023-05-10T12:01:24;24.30;40.30
14877;DHT22;69691;48.172;17.070;2023-05-10T12:03:53;24.10;40.50
14877;DHT22;69691;48.172;17.070;2023-05-10T12:06:20;23.70;40.60
14877;DHT22;69691;48.172;17.070;2023-05-10T12:08:47;23.40;40.80
14877;DHT22;69691;48.172;17.070;2023-05-10T12:11:18;23.30;41.10
14877;DHT22;69691;48.172;17.070;2023-05-10T12:13:44;23.20;41.30
14877;DHT22;69691;48.172;17.070;2023-05-10T12:16:14;23.20;41.10
14877;DHT22;69691;48.172;17.070;2023-05-10T12:18:42;23.00;40.80
14877;DHT22;69691;48.172;17.070;2023-05-10T12:21:12;22.80;41.00
14877;DHT22;69691;48.172;17.070;2023-05-10T12:23:39;22.80;41.10
14877;DHT22;69691;48.172;17.070;2023-05-10T12:26:06;22.80;41.10
14877;DHT22;69691;48.172;17.070;2023-05-10T12:28:32;22.80;41.00
14877;DHT22;69691;48.172;17.070;2023-05-10T12:31:02;22.70;41.20
14877;DHT22;69691;48.172;17.070;2023-05-10T12:33:36;22.60;41.30
14877;DHT22;69691;48.172;17.070;2023-05-10T12:36:05;22.60;41.70
14877;DHT22;69691;48.172;17.070;2023-05-10T12:38:41;22.50;41.00
14877;DHT22;69691;48.172;17.070;2023-05-10T12:41:17;22.50;41.50
14877;DHT22;69691;48.172;17.070;2023-05-10T12:43:43;22.70;41.40
14877;DHT22;69691;48.172;17.070;2023-05-10T12:46:13;23.00;40.80
14877;DHT22;69691;48.172;17.070;2023-05-10T12:48:46;23.40;40.50
14877;DHT22;69691;48.172;17.070;2023-05-10T12:51:15;23.50;40.50
14877;DHT22;69691;48.172;17.070;2023-05-10T12:53:44;23.40;40.40
14877;DHT22;69691;48.172;17.070;2023-05-10T12:56:13;23.10;40.40
14877;DHT22;69691;48.172;17.070;2023-05-10T12:58:39;22.70;40.50
14877;DHT22;69691;48.172;17.070;2023-05-10T13:01:05;22.60;41.00
14877;DHT22;69691;48.172;17.070;2023-05-10T13:03:31;22.30;41.10
14877;DHT22;69691;48.172;17.070;2023-05-10T13:05:57;22.30;41.40
14877;DHT22;69691;48.172;17.070;2023-05-10T13:08:23;22.20;40.80
14877;DHT22;69691;48.172;17.070;2023-05-10T13:10:49;22.20;41.20
14877;DHT22;69691;48.172;17.070;2023-05-10T13:13:15;22.30;41.40
14877;DHT22;69691;48.172;17.070;2023-05-10T13:15:41;22.50;41.40
14877;DHT22;69691;48.172;17.070;2023-05-10T13:18:07;22.30;40.90
14877;DHT22;69691;48.172;17.070;2023-05-10T13:20:33;22.10;41.00
14877;DHT22;69691;48.172;17.070;2023-05-10T13:22:59;22.00;41.50
14877;DHT22;69691;48.172;17.070;2023-05-10T13:25:25;22.00;41.30
14877;DHT22;69691;48.172;17.070;2023-05-10T13:27:51;21.80;41.20
14877;DHT22;69691;48.172;17.070;2023-05-10T13:30:17;21.80;41.40
14877;DHT22;69691;48.172;17.070;2023-05-10T13:32:43;21.90;41.10
14877;DHT22;69691;48.172;17.070;2023-05-10T13:35:09;22.10;41.20
14877;DHT22;69691;48.172;17.070;2023-05-10T13:37:35;22.30;41.20
14877;DHT22;69691;48.172;17.070;2023-05-10T13:40:03;22.50;41.00
14877;DHT22;69691;48.172;17.070;2023-05-10T13:42:29;22.70;39.90
14877;DHT22;69691;48.172;17.070;2023-05-10T13:44:57;22.80;40.10
14877;DHT22;69691;48.172;17.070;2023-05-10T13:47:22;23.00;40.20
14877;DHT22;69691;48.172;17.070;2023-05-10T13:49:48;23.00;39.80
14877;DHT22;69691;48.172;17.070;2023-05-10T13:52:14;23.10;39.80
14877;DHT22;69691;48.172;17.070;2023-05-10T13:54:40;23.10;39.70
14877;DHT22;69691;48.172;17.070;2023-05-10T13:57:06;22.90;39.10
14877;DHT22;69691;48.172;17.070;2023-05-10T13:59:32;22.60;39.10
14877;DHT22;69691;48.172;17.070;2023-05-10T14:01:58;22.40;39.50
14877;DHT22;69691;48.172;17.070;2023-05-10T14:04:25;22.10;39.70
14877;DHT22;69691;48.172;17.070;2023-05-10T14:06:50;21.90;39.80
14877;DHT22;69691;48.172;17.070;2023-05-10T14:09:18;21.90;39.90
14877;DHT22;69691;48.172;17.070;2023-05-10T14:11:44;21.90;39.70
14877;DHT22;69691;48.172;17.070;2023-05-10T14:14:11;22.00;40.20
14877;DHT22;69691;48.172;17.070;2023-05-10T14:16:41;22.30;40.30
14877;DHT22;69691;48.172;17.070;2023-05-10T14:19:08;22.50;39.70
14877;DHT22;69691;48.172;17.070;2023-05-10T14:21:34;22.50;38.50
14877;DHT22;69691;48.172;17.070;2023-05-10T14:24:00;22.40;38.00
14877;DHT22;69691;48.172;17.070;2023-05-10T14:26:26;22.30;37.90
14877;DHT22;69691;48.172;17.070;2023-05-10T14:28:52;22.10;38.40
14877;DHT22;69691;48.172;17.070;2023-05-10T14:31:19;22.00;38.50
14877;DHT22;69691;48.172;17.070;2023-05-10T14:33:50;22.00;38.50
14877;DHT22;69691;48.172;17.070;2023-05-10T14:36:15;21.80;37.80
14877;DHT22;69691;48.172;17.070;2023-05-10T14:38:41;21.80;37.80
14877;DHT22;69691;48.172;17.070;2023-05-10T14:41:07;21.90;38.20
14877;DHT22;69691;48.172;17.070;2023-05-10T14:43:33;22.00;38.20
14877;DHT22;69691;48.172;17.070;2023-05-10T14:45:59;22.20;38.30
14877;DHT22;69691;48.172;17.070;2023-05-10T14:48:24;22.40;38.40
14877;DHT22;69691;48.172;17.070;2023-05-10T14:50:50;22.40;38.20
14877;DHT22;69691;48.172;17.070;2023-05-10T14:53:18;22.30;37.70
14877;DHT22;69691;48.172;17.070;2023-05-10T14:55:44;22.10;38.00
14877;DHT22;69691;48.172;17.070;2023-05-10T14:58:09;22.00;38.20
14877;DHT22;69691;48.172;17.070;2023-05-10T15:00:35;21.90;38.40
14877;DHT22;69691;48.172;17.070;2023-05-10T15:03:01;21.80;38.60
14877;DHT22;69691;48.172;17.070;2023-05-10T15:05:27;21.80;38.80
14877;DHT22;69691;48.172;17.070;2023-05-10T15:07:53;21.70;39.30
14877;DHT22;69691;48.172;17.070;2023-05-10T15:10:19;21.60;39.20
14877;DHT22;69691;48.172;17.070;2023-05-10T15:12:45;21.50;39.40
14877;DHT22;69691;48.172;17.070;2023-05-10T15:15:10;21.50;39.50
14877;DHT22;69691;48.172;17.070;2023-05-10T15:17:36;21.50;39.50
14877;DHT22;69691;48.172;17.070;2023-05-10T15:20:02;21.50;39.60
14877;DHT22;69691;48.172;17.070;2023-05-10T15:22:29;21.50;39.20
14877;DHT22;69691;48.172;17.070;2023-05-10T15:24:57;21.50;39.20
14877;DHT22;69691;48.172;17.070;2023-05-10T15:27:24;21.40;38.90
14877;DHT22;69691;48.172;17.070;2023-05-10T15:29:51;21.30;39.00
14877;DHT22;69691;48.172;17.070;2023-05-10T15:32:17;21.20;39.00
14877;DHT22;69691;48.172;17.070;2023-05-10T15:34:43;21.20;39.10
14877;DHT22;69691;48.172;17.070;2023-05-10T15:37:09;21.20;39.30
14877;DHT22;69691;48.172;17.070;2023-05-10T15:39:35;21.20;39.70
14877;DHT22;69691;48.172;17.070;2023-05-10T15:42:01;21.10;39.70
14877;DHT22;69691;48.172;17.070;2023-05-10T15:44:28;21.10;39.30
14877;DHT22;69691;48.172;17.070;2023-05-10T15:46:54;21.10;39.20
14877;DHT22;69691;48.172;17.070;2023-05-10T15:49:20;21.10;39.10
14877;DHT22;69691;48.172;17.070;2023-05-10T15:51:46;21.00;39.10
14877;DHT22;69691;48.172;17.070;2023-05-10T15:54:12;20.90;39.40
14877;DHT22;69691;48.172;17.070;2023-05-10T15:56:37;20.90;39.40